createdAt,value
2022-11-04T00:05:02.683Z,69.48
2022-11-04T00:10:07.033Z,69.42
2022-11-04T00:15:10.862Z,69.42
2022-11-04T00:20:14.379Z,69.66
2022-11-04T00:25:18.061Z,69.53
2022-11-04T00:30:21.519Z,69.78
2022-11-04T00:35:28.615Z,69.77
2022-11-04T00:40:32.743Z,70.14
2022-11-04T00:45:36.972Z,69.87
2022-11-04T00:50:40.361Z,69.93
2022-11-04T00:55:43.845Z,70.11
2022-11-04T01:00:47.211Z,70.11
2022-11-04T01:05:50.530Z,70.21
2022-11-04T01:10:54.071Z,70.38
2022-11-04T01:16:05.526Z,70.45
2022-11-04T01:21:12.176Z,70.48
2022-11-04T01:26:24.027Z,70.64
2022-11-04T01:31:29.825Z,70.62
2022-11-04T01:36:33.242Z,70.79
2022-11-04T01:41:36.689Z,71.03
2022-11-04T01:46:47.276Z,71.24
2022-11-04T01:51:54.884Z,71.23
2022-11-04T01:57:03.272Z,71.65
2022-11-04T02:02:08.056Z,71.62
2022-11-04T02:07:12.568Z,72.05
2022-11-04T02:12:16.246Z,71.93
2022-11-04T02:17:19.803Z,71.96
2022-11-04T02:22:40.046Z,72.01
2022-11-04T02:28:02.699Z,72.14
2022-11-04T02:33:17.984Z,72.23
2022-11-04T02:38:36.222Z,72.38
2022-11-04T02:43:52.482Z,72.51
2022-11-04T02:49:08.455Z,72.58
2022-11-04T02:54:20.371Z,72.65
2022-11-04T02:59:45.097Z,72.71
2022-11-04T03:04:51.944Z,72.71
2022-11-04T03:10:01.229Z,72.81
2022-11-04T03:15:14.101Z,72.91
2022-11-04T03:20:22.790Z,72.92
2022-11-04T03:25:31.300Z,73.10
2022-11-04T03:30:44.669Z,73.03
2022-11-04T03:35:57.630Z,73.05
2022-11-04T03:41:03.359Z,73.08
2022-11-04T03:46:06.889Z,73.14
2022-11-04T03:51:10.374Z,72.94
2022-11-04T03:56:32.287Z,72.92
2022-11-04T04:01:50.668Z,72.76
2022-11-04T04:07:03.239Z,72.83
2022-11-04T04:12:16.090Z,72.69
2022-11-04T04:17:48.240Z,72.63
2022-11-04T04:23:08.666Z,72.64
2022-11-04T04:28:15.238Z,72.50
2022-11-04T04:33:20.338Z,72.48
2022-11-04T04:38:26.180Z,72.48
2022-11-04T04:43:29.678Z,72.47
2022-11-04T04:48:35.918Z,72.54
2022-11-04T04:53:43.175Z,72.26
2022-11-04T04:58:47.085Z,72.42
2022-11-04T05:03:50.745Z,72.27
2022-11-04T05:08:53.626Z,71.95
2022-11-04T05:13:58.182Z,71.86
2022-11-04T05:19:01.386Z,71.69
2022-11-04T05:24:04.951Z,71.58
2022-11-04T05:29:10.105Z,71.52
2022-11-04T05:34:14.568Z,71.22
2022-11-04T05:39:18.420Z,70.60
2022-11-04T05:44:22.064Z,68.54
2022-11-04T05:49:25.623Z,68.08
2022-11-04T05:54:28.941Z,68.88
2022-11-04T05:59:32.166Z,69.00
2022-11-04T06:04:35.446Z,68.41
2022-11-04T06:09:38.700Z,67.83
2022-11-04T06:14:43.057Z,67.12
2022-11-04T06:19:47.072Z,67.19
2022-11-04T06:24:50.577Z,66.99
2022-11-04T06:29:54.476Z,66.29
2022-11-04T06:35:13.649Z,65.47
2022-11-04T06:40:20.755Z,63.79
2022-11-04T06:45:24.041Z,63.11
2022-11-04T06:50:28.045Z,62.69
2022-11-04T06:55:31.454Z,62.98
2022-11-04T07:00:34.623Z,62.91
2022-11-04T07:05:37.910Z,63.39
2022-11-04T07:10:41.922Z,63.51
2022-11-04T07:15:46.302Z,63.45
2022-11-04T07:20:49.612Z,63.28
2022-11-04T07:25:53.081Z,63.04
2022-11-04T07:30:58.168Z,62.52
2022-11-04T07:36:11.223Z,62.30
2022-11-04T07:41:15.223Z,61.95
2022-11-04T07:46:19.995Z,61.76
2022-11-04T07:51:26.532Z,61.06
2022-11-04T07:56:34.389Z,60.71
2022-11-04T08:01:37.908Z,60.46
2022-11-04T08:06:41.402Z,60.34
2022-11-04T08:11:45.165Z,60.16
2022-11-04T08:16:50.919Z,59.88
2022-11-04T08:21:54.534Z,59.69
2022-11-04T08:26:57.832Z,59.68
2022-11-04T08:32:02.871Z,59.62
2022-11-04T08:37:13.269Z,59.23
2022-11-04T08:42:16.476Z,59.17
2022-11-04T08:47:19.767Z,59.19
2022-11-04T08:52:23.132Z,58.87
2022-11-04T08:57:26.527Z,57.95
2022-11-04T09:02:29.907Z,57.82
2022-11-04T09:07:33.471Z,57.56
2022-11-04T09:12:37.279Z,57.73
2022-11-04T09:17:41.204Z,57.55
2022-11-04T09:22:45.953Z,57.46
2022-11-04T09:27:49.670Z,57.73
2022-11-04T09:32:53.154Z,57.98
2022-11-04T09:37:56.419Z,58.31
2022-11-04T09:43:14.946Z,58.36
2022-11-04T09:48:42.190Z,58.50
2022-11-04T09:53:47.970Z,58.46
2022-11-04T09:58:54.607Z,58.49
2022-11-04T10:04:03.721Z,58.36
2022-11-04T10:09:39.221Z,58.28
2022-11-04T10:14:48.956Z,57.90
2022-11-04T10:19:55.519Z,57.74
2022-11-04T10:25:14.180Z,57.75
2022-11-04T10:30:23.968Z,57.24
2022-11-04T10:36:05.960Z,57.09
2022-11-04T10:41:24.805Z,56.99
2022-11-04T10:46:48.988Z,57.55
2022-11-04T10:51:57.116Z,57.02
2022-11-04T10:57:02.757Z,56.60
2022-11-04T11:02:06.847Z,56.25
2022-11-04T11:07:13.170Z,56.11
2022-11-04T11:12:48.714Z,55.59
2022-11-04T11:17:40.186Z,55.30
2022-11-04T11:22:46.162Z,54.97
2022-11-04T11:27:58.575Z,55.25
2022-11-04T11:33:03.541Z,55.91
2022-11-04T11:38:19.033Z,55.76
2022-11-04T11:43:32.285Z,55.67
2022-11-04T11:48:44.185Z,55.50
2022-11-04T11:54:07.673Z,55.18
2022-11-04T12:10:52.008Z,55.16
2022-11-04T12:16:13.780Z,55.05
2022-11-04T12:21:26.860Z,54.79
2022-11-04T12:27:04.709Z,54.65
2022-11-04T12:32:17.195Z,54.90
2022-11-04T12:37:23.448Z,54.70
2022-11-04T12:42:38.789Z,54.85
2022-11-04T12:47:45.466Z,54.88
2022-11-04T12:53:27.484Z,54.95
2022-11-04T12:58:36.620Z,54.76
2022-11-04T13:03:51.023Z,54.80
2022-11-04T13:09:17.748Z,55.16
2022-11-04T13:14:26.910Z,54.87
2022-11-04T13:19:34.292Z,54.95
2022-11-04T13:24:49.386Z,54.86
2022-11-04T13:30:17.768Z,55.17
2022-11-04T13:35:33.198Z,55.09
2022-11-04T13:40:50.232Z,55.34
2022-11-04T13:45:56.023Z,54.42
2022-11-04T13:51:13.434Z,54.75
2022-11-04T13:56:45.841Z,55.03
2022-11-04T14:01:49.046Z,55.48
2022-11-04T14:07:01.734Z,55.07
2022-11-04T14:12:11.044Z,55.04
2022-11-04T14:17:33.095Z,55.14
2022-11-04T14:22:38.094Z,55.22
2022-11-04T14:27:41.765Z,55.78
2022-11-04T14:32:45.279Z,55.83
2022-11-04T14:37:55.898Z,56.07
2022-11-04T14:43:00.255Z,56.42
2022-11-04T14:48:18.459Z,56.51
2022-11-04T14:53:37.418Z,56.97
2022-11-04T14:59:02.191Z,56.71
2022-11-04T15:04:31.806Z,56.94
2022-11-04T15:09:41.515Z,57.22
2022-11-04T15:14:45.189Z,57.35
2022-11-04T15:19:52.541Z,57.37
2022-11-04T15:24:57.139Z,57.37
2022-11-04T15:30:03.617Z,57.42
2022-11-04T15:35:13.255Z,57.48
2022-11-04T15:40:17.499Z,57.67
2022-11-04T15:45:28.752Z,57.84
2022-11-04T15:50:32.162Z,57.74
2022-11-04T15:55:37.879Z,57.65
2022-11-04T16:00:43.526Z,57.96
2022-11-04T16:06:02.503Z,57.96
2022-11-04T16:11:19.016Z,57.81
2022-11-04T16:16:28.014Z,57.91
2022-11-04T16:21:35.357Z,58.14
2022-11-04T16:26:42.032Z,58.23
2022-11-04T16:31:45.338Z,58.37
2022-11-04T16:36:48.494Z,58.39
2022-11-04T16:41:52.041Z,58.52
2022-11-04T16:46:55.999Z,58.53
2022-11-04T16:52:03.302Z,58.40
2022-11-04T16:57:06.964Z,58.42
2022-11-04T17:02:36.726Z,58.63
2022-11-04T17:07:52.892Z,58.62
2022-11-04T17:12:58.849Z,58.81
2022-11-04T17:18:02.301Z,58.74
2022-11-04T17:23:05.653Z,58.81
2022-11-04T17:28:08.939Z,58.88
2022-11-04T17:33:17.521Z,58.74
2022-11-04T17:38:21.423Z,58.78
2022-11-04T17:43:25.869Z,58.91
2022-11-04T17:48:29.180Z,58.73
2022-11-04T17:53:32.283Z,58.89
2022-11-04T17:58:35.304Z,58.78
2022-11-04T18:03:38.940Z,58.89
2022-11-04T18:08:42.541Z,58.83
2022-11-04T18:13:45.792Z,59.15
2022-11-04T18:18:49.528Z,59.25
2022-11-04T18:23:54.611Z,59.21
2022-11-04T18:28:58.625Z,59.42
2022-11-04T18:34:06.871Z,59.57
2022-11-04T18:39:13.837Z,59.71
2022-11-04T18:44:19.598Z,59.76
2022-11-04T18:49:22.915Z,60.00
2022-11-04T18:54:25.795Z,60.04
2022-11-04T18:59:29.066Z,60.27
2022-11-04T19:04:33.359Z,60.63
2022-11-04T19:09:46.645Z,60.74
2022-11-04T19:14:50.981Z,61.35
2022-11-04T19:19:54.229Z,61.25
2022-11-04T19:24:57.788Z,61.52
2022-11-04T19:30:01.049Z,61.75
2022-11-04T19:35:09.058Z,61.95
2022-11-04T19:40:14.722Z,61.86
2022-11-04T19:45:18.654Z,62.24
2022-11-04T19:50:22.486Z,62.45
2022-11-04T19:55:25.855Z,62.28
2022-11-04T20:00:33.187Z,62.59
2022-11-04T20:05:38.738Z,62.35
2022-11-04T20:10:43.353Z,63.01
2022-11-04T20:15:46.941Z,63.07
2022-11-04T20:20:50.396Z,63.10
2022-11-04T20:25:53.746Z,63.23
2022-11-04T20:30:56.936Z,63.34
2022-11-04T20:36:03.313Z,63.29
2022-11-04T20:41:09.374Z,63.22
2022-11-04T20:46:21.493Z,63.34
2022-11-04T20:51:28.206Z,63.66
2022-11-04T20:56:33.945Z,63.77
2022-11-04T21:01:43.882Z,63.81
2022-11-04T21:06:50.036Z,64.07
2022-11-04T21:11:53.549Z,63.88
2022-11-04T21:16:59.173Z,64.31
2022-11-04T21:22:05.133Z,64.14
2022-11-04T21:27:11.794Z,64.20
2022-11-04T21:32:15.079Z,64.07
2022-11-04T21:37:18.066Z,63.85
2022-11-04T21:42:21.301Z,64.01
2022-11-04T21:47:24.327Z,64.07
2022-11-04T21:52:28.002Z,63.88
2022-11-04T21:57:31.553Z,64.08
2022-11-04T22:02:37.521Z,64.05
2022-11-04T22:07:41.485Z,64.09
2022-11-04T22:12:50.976Z,64.40
2022-11-04T22:17:55.017Z,64.45
2022-11-04T22:22:58.681Z,64.07
2022-11-04T22:28:01.987Z,64.34
2022-11-04T22:33:05.403Z,64.48
2022-11-04T22:38:08.443Z,64.54
2022-11-04T22:43:12.638Z,64.55
2022-11-04T22:48:16.366Z,64.58
2022-11-04T22:53:19.692Z,64.68
2022-11-04T22:58:22.961Z,64.75
2022-11-04T23:03:26.329Z,64.29
2022-11-04T23:08:31.009Z,64.46
2022-11-04T23:13:34.301Z,64.64
2022-11-04T23:18:37.909Z,64.62
2022-11-04T23:23:41.199Z,64.58
2022-11-04T23:28:44.458Z,64.61
2022-11-04T23:33:47.941Z,64.60
2022-11-04T23:38:51.464Z,64.47
2022-11-04T23:43:55.496Z,64.58
2022-11-04T23:48:59.006Z,64.61
2022-11-04T23:54:02.257Z,64.57
2022-11-04T23:59:05.689Z,64.50
